Date,TemperatureHighF,TemperatureAvgF,TemperatureLowF,DewpointHighF,DewpointAvgF,DewpointLowF,HumidityHigh,HumidityAvg,HumidityLow,PressureMaxIn,PressureMinIn,WindSpeedMaxMPH,WindSpeedAvgMPH,GustSpeedMaxMPH,PrecipitationSumIn
2014-1-1,42.5,35.6,30.1,26.6,21.4,17.6,68,56,44,30.19,29.95,14,5,17,0.00
2014-1-2,43.4,34.7,13.3,43.4,34.0,13.3,100,97,69,29.95,29.57,30,7,41,0.00
2014-1-3,21.0,13.9,6.3,21.0,13.3,6.3,100,98,74,30.10,29.72,25,2,32,0.00
2014-1-4,40.2,29.9,19.5,40.2,20.8,8.9,100,71,44,30.13,30.00,28,6,38,0.00
2014-1-5,52.2,46.4,40.2,52.2,46.3,40.2,100,100,92,30.00,29.54,34,9,43,0.00
2014-1-6,46.9,15.2,-3.9,46.9,15.1,-3.9,100,100,97,29.90,29.54,34,10,40,0.00
2014-1-7,21.5,6.9,-5.9,14.8,2.8,-6.1,100,85,62,30.14,29.90,20,3,25,0.00
2014-1-8,38.1,27.8,21.1,27.3,20.2,14.3,79,73,64,30.30,30.13,10,0,14,0.00
2014-1-9,45.8,36.9,30.6,41.3,28.3,20.6,100,73,49,30.32,30.21,16,2,22,0.00
2014-1-10,53.2,47.6,40.6,53.2,47.6,40.6,100,100,100,30.25,29.92,17,2,27,0.00
2014-1-11,54.8,48.5,36.6,54.8,47.9,36.6,100,98,79,29.92,29.53,29,9,35,0.00
2014-1-12,46.2,38.1,32.7,36.7,33.5,31.6,100,85,59,30.03,29.73,27,5,30,0.00
2014-1-13,49.9,43.3,38.7,42.7,33.2,28.1,100,69,51,30.00,29.76,19,7,23,0.00
2014-1-14,43.2,39.7,35.7,42.2,37.9,32.0,100,94,67,29.85,29.67,19,2,25,0.00
2014-1-15,35.8,30.7,22.1,33.3,29.7,22.0,100,96,86,29.83,29.72,14,1,18,0.00
2014-1-16,35.3,25.9,16.9,26.7,22.1,16.9,100,86,68,29.79,29.69,18,2,20,0.00
2014-1-17,38.2,29.6,17.7,29.1,25.1,17.5,100,84,52,29.76,29.59,35,7,50,0.00
2014-1-18,31.3,21.5,13.0,22.6,17.8,13.0,100,87,66,29.82,29.69,27,8,38,0.00
2014-1-19,38.1,31.6,26.9,32.2,26.9,21.8,100,83,62,29.86,29.68,22,5,27,0.00
2014-1-20,50.1,40.9,32.5,30.6,25.9,16.5,67,55,44,29.82,29.72,25,6,31,0.00
2014-1-21,40.2,29.9,10.6,33.5,26.7,10.6,100,89,66,29.72,29.48,24,6,32,0.00
2014-1-22,24.0,12.9,3.9,15.9,9.7,3.8,100,88,66,29.80,29.64,22,4,32,0.00
2014-1-23,20.3,13.4,2.2,16.2,10.4,-0.2,96,88,76,30.12,29.79,26,6,32,0.00
2014-1-24,23.0,9.9,-2.4,11.0,2.8,-3.7,94,75,48,30.20,29.85,14,3,20,0.00
2014-1-25,28.4,24.0,19.3,25.8,15.9,1.0,100,74,41,29.85,29.48,40,12,50,0.00
2014-1-26,42.8,32.1,22.4,34.6,24.2,12.0,95,73,54,29.72,29.63,32,9,36,0.00
2014-1-27,39.2,33.0,17.2,38.6,30.6,10.1,100,91,73,29.90,29.69,26,5,29,0.00
2014-1-28,17.5,14.2,11.4,17.0,12.7,8.6,100,94,74,29.92,29.84,9,1,11,0.00
2014-1-29,20.9,11.5,3.1,12.3,7.1,2.6,100,83,61,29.99,29.85,12,1,13,0.00
2014-1-30,37.2,22.7,11.8,16.8,11.8,4.5,88,65,41,30.03,29.89,13,4,19,0.00
2014-1-31,45.6,36.3,28.7,25.1,18.2,11.9,59,48,42,30.05,29.94,12,2,14,0.00
2014-2-1,57.4,46.2,37.5,51.1,34.6,18.5,93,66,36,30.06,29.95,27,7,30,0.00
2014-2-2,53.7,47.8,40.9,53.7,46.9,39.0,100,97,83,30.03,29.85,26,4,33,0.00
2014-2-3,53.6,42.5,32.5,53.5,42.5,32.5,100,100,100,30.05,29.71,27,4,40,0.00
2014-2-4,50.6,42.2,35.1,50.6,42.2,35.1,100,100,100,30.12,29.83,28,3,35,0.00
2014-2-5,51.9,41.0,22.4,51.9,41.0,22.4,100,100,100,30.00,29.69,32,8,46,0.00
2014-2-6,27.7,23.7,20.1,27.6,23.7,20.1,100,100,100,30.10,29.98,9,0,12,0.00
2014-2-7,34.1,27.8,22.7,34.1,27.8,22.6,100,100,100,30.13,30.03,10,1,11,0.00
2014-2-8,40.3,34.5,29.4,39.8,34.4,29.4,100,100,96,30.07,29.97,14,1,18,0.00
2014-2-9,44.0,35.4,30.8,43.7,35.4,30.8,100,100,98,30.01,29.87,15,2,22,0.00
2014-2-10,34.1,29.0,24.4,34.1,29.0,24.4,100,100,100,30.00,29.88,12,0,13,0.00
2014-2-11,31.0,27.2,24.8,31.0,27.2,24.8,100,100,100,30.07,29.96,0,0,0,0.00
2014-2-12,27.2,26.4,26.0,27.1,26.4,26.0,100,100,100,30.06,29.59,0,0,8,0.16
2014-2-13,31.4,27.1,24.2,31.4,26.9,24.1,100,99,90,29.60,29.44,26,0,27,0.00
2014-2-14,46.9,36.3,28.8,35.4,31.0,26.2,99,82,58,29.68,29.48,24,8,36,0.00
2014-2-15,35.5,26.3,22.4,35.5,25.1,19.3,100,95,75,29.89,29.43,25,6,32,0.00
2014-2-16,43.3,34.2,24.6,35.4,31.5,23.4,100,90,71,30.02,29.83,23,6,33,0.00
2014-2-17,47.7,38.8,30.6,40.0,34.7,28.4,100,86,60,30.08,29.92,21,5,33,0.00
2014-2-18,54.4,43.2,33.9,44.2,30.8,22.3,100,65,35,30.12,29.96,23,5,25,0.00
2014-2-19,57.0,50.7,45.9,56.1,49.7,44.2,100,97,82,30.05,29.84,26,6,31,0.00
2014-2-20,61.6,55.0,48.8,57.9,53.6,48.8,100,95,74,30.04,29.83,30,8,37,0.00
2014-2-21,57.3,46.1,36.6,57.2,37.5,21.7,100,75,38,29.97,29.72,28,7,39,0.00
2014-2-22,54.3,43.8,37.3,27.8,23.9,19.0,62,46,31,30.09,29.97,14,3,17,0.00
2014-2-23,59.4,48.0,41.0,37.7,30.4,20.6,82,51,41,29.99,29.87,20,5,28,0.00
2014-2-24,43.2,38.2,34.0,38.5,32.0,24.8,100,80,51,30.03,29.90,15,2,22,0.00
2014-2-25,46.0,39.2,32.3,34.2,27.8,24.5,79,64,49,29.96,29.81,25,4,30,0.00
2014-2-26,33.1,28.6,22.2,26.6,23.4,17.2,92,81,72,29.81,29.64,16,2,19,0.00
2014-2-27,36.8,26.1,17.6,17.2,11.4,5.8,82,55,36,29.79,29.62,30,4,39,0.00
2014-2-28,41.9,31.2,21.7,23.3,17.7,9.5,71,57,46,30.02,29.79,14,3,16,0.00
2014-3-1,51.7,41.0,33.2,40.1,32.8,21.8,91,73,58,30.13,30.02,19,3,25,0.00
2014-3-2,58.4,49.4,40.5,53.9,47.9,39.0,100,95,81,30.12,29.86,23,6,27,0.00
2014-3-3,51.7,38.1,26.2,51.7,38.1,26.1,100,100,100,29.98,29.70,22,2,28,0.00
2014-3-4,40.5,32.7,25.2,40.5,32.7,25.1,100,100,96,30.01,29.92,8,1,10,0.00
2014-3-5,48.3,39.2,31.2,40.8,34.9,31.1,100,86,54,30.06,29.95,15,3,16,0.00
2014-3-6,40.5,36.6,33.2,36.0,27.6,18.6,100,71,46,30.07,29.88,11,2,15,0.00
2014-3-7,47.2,39.3,33.6,46.2,39.0,33.6,100,99,90,29.94,29.81,11,1,13,0.00
2014-3-8,57.8,46.6,40.1,43.1,39.5,35.4,100,79,49,30.03,29.92,28,3,32,0.00
2014-3-9,54.9,45.5,40.4,45.2,38.1,29.6,100,78,42,30.07,29.98,25,5,28,0.00
2014-3-10,42.9,42.6,42.3,31.5,31.2,31.0,64,64,63,30.03,30.00,8,4,12,0.00
2014-3-11,48.6,48.2,47.9,39.8,38.9,37.3,72,70,67,29.87,29.84,9,8,28,0.00
2014-3-12,56.4,56.2,56.0,48.2,47.7,47.2,75,73,72,29.71,29.69,10,6,22,0.00
2014-3-14,28.7,28.0,27.6,15.4,14.9,14.5,59,57,55,30.05,30.03,0,0,31,0.00
2014-3-15,43.5,43.2,43.0,31.3,31.0,30.7,62,62,61,29.98,29.96,28,9,29,0.00
2014-3-16,48.1,47.8,47.7,34.6,34.1,33.5,60,59,58,29.99,29.96,4,1,36,0.00
2014-3-17,43.7,43.0,42.4,43.7,43.0,42.4,100,100,100,29.63,29.62,0,0,0,0.00
2014-3-18,39.1,38.1,37.7,39.1,38.1,37.7,100,100,100,29.72,29.71,0,0,4,0.00
2014-3-19,39.7,39.4,39.2,39.7,39.4,39.2,100,100,100,29.96,29.94,11,2,20,0.00
2014-3-20,44.4,44.3,44.3,42.5,42.4,42.3,93,93,92,29.94,29.93,16,8,26,0.00
2014-3-21,39.9,39.7,39.1,26.1,25.9,25.7,59,57,56,30.03,30.01,3,0,31,0.00
2014-3-22,47.5,47.4,47.2,28.8,28.2,27.9,48,47,46,29.98,29.97,19,9,23,0.00
2014-3-23,49.6,49.3,48.7,45.6,45.4,45.2,88,87,86,30.00,29.99,4,0,26,0.00
2014-3-24,32.1,31.2,30.1,29.9,29.2,28.5,94,92,91,30.04,30.03,7,2,28,0.00
2014-3-25,35.5,35.2,35.1,28.2,26.4,25.1,75,70,67,29.87,29.84,7,1,15,0.00
2014-3-26,38.7,30.3,19.2,23.5,18.9,16.0,88,64,46,30.10,29.87,23,3,37,0.00
2014-3-27,53.9,37.4,28.7,32.7,23.1,18.2,67,57,41,30.16,30.07,20,5,27,0.00
2014-3-28,53.4,48.0,43.6,53.4,46.5,32.8,100,95,65,30.09,29.97,32,8,33,0.00
2014-3-29,53.8,47.9,32.3,53.8,47.9,32.3,100,100,100,30.04,29.62,23,3,43,0.00
2014-3-30,43.8,33.3,27.5,37.9,31.5,27.5,100,94,72,30.04,29.77,26,7,43,0.00
2014-3-31,62.3,45.6,35.5,38.2,29.2,13.9,85,56,31,30.14,30.03,12,2,35,0.00
2014-4-1,69.2,55.8,49.4,47.2,35.6,28.1,52,47,40,30.14,30.07,18,4,23,0.00
2014-4-2,72.5,59.8,52.9,52.2,40.7,31.7,70,50,37,30.16,30.07,18,4,24,0.00
2014-4-3,75.8,62.2,52.6,59.9,48.6,40.4,100,63,34,30.12,29.93,24,6,36,0.00
2014-4-4,62.2,58.5,52.7,58.9,55.4,47.3,100,90,76,29.96,29.80,28,9,45,0.00
2014-4-5,52.8,45.2,37.5,51.1,42.1,37.5,100,90,62,30.02,29.89,23,6,45,0.00
2014-4-6,55.6,47.2,42.0,44.0,39.1,35.1,100,74,57,30.05,29.91,13,2,27,0.00
2014-4-7,59.4,47.2,40.1,59.4,47.2,40.1,100,100,100,29.94,29.57,19,5,40,0.00
2014-4-8,52.8,44.2,38.8,52.8,43.1,38.8,100,96,82,29.71,29.61,17,4,34,0.00
2014-4-9,54.9,43.9,39.8,43.9,40.0,35.0,100,88,52,30.09,29.71,18,4,28,0.00
2014-4-10,66.3,50.8,40.5,40.2,37.2,35.2,83,62,37,30.20,30.08,18,4,23,0.00
2014-4-11,69.1,56.2,49.3,46.8,40.7,37.7,68,57,35,30.19,30.08,23,8,28,0.00
2014-4-12,71.8,58.3,52.8,53.5,46.6,41.4,88,66,43,30.24,30.11,12,4,20,0.00
2014-4-13,74.7,61.5,55.7,55.5,53.3,50.6,92,76,45,30.18,30.03,20,8,26,0.00
2014-4-14,60.9,58.2,55.6,60.7,56.7,54.3,100,95,88,30.03,29.78,20,5,30,0.00
2014-4-15,57.3,44.8,26.9,57.3,44.8,26.8,100,100,99,29.94,29.63,17,1,30,0.00
2014-4-16,50.2,33.2,22.4,33.7,26.8,22.4,100,81,41,30.24,29.94,19,2,25,0.00
2014-4-17,53.7,40.9,33.5,37.0,30.8,27.9,84,68,46,30.34,30.24,18,4,20,0.00
2014-4-18,51.0,44.8,42.1,45.3,36.9,31.2,100,74,63,30.32,30.13,16,2,20,0.00
2014-4-19,51.6,46.1,43.1,51.2,45.8,43.1,100,99,91,30.18,30.05,21,6,25,0.00
2014-4-20,63.4,50.4,42.8,52.1,43.5,33.3,100,81,44,30.23,30.13,14,2,25,0.00
2014-4-21,68.2,55.0,47.9,48.4,40.9,34.4,70,59,45,30.18,29.98,13,2,19,0.00
2014-4-22,58.7,56.1,54.4,58.6,52.6,45.7,100,89,66,29.98,29.79,17,3,22,0.00
2014-4-23,62.9,52.4,43.6,55.4,40.8,30.2,100,70,31,30.01,29.83,19,3,22,0.00
2014-4-24,70.8,55.4,46.9,44.1,36.1,30.3,59,49,36,30.05,29.93,19,4,22,0.00
2014-4-25,62.2,56.9,50.0,57.8,51.3,42.5,100,82,60,29.97,29.77,24,7,38,0.00
2014-4-26,71.7,55.9,47.6,48.4,45.4,39.5,97,73,34,30.05,29.95,12,1,38,0.00
2014-4-27,74.9,63.5,55.8,58.3,45.8,40.9,87,54,33,30.07,29.94,17,3,21,0.00
2014-4-28,75.2,65.0,59.3,62.2,57.6,50.9,100,80,43,30.02,29.86,34,5,34,0.00
2014-4-29,72.0,62.9,58.3,62.7,60.1,57.5,100,92,67,29.94,29.74,26,9,37,0.00
2014-4-30,68.5,61.9,54.4,62.5,59.5,54.2,100,93,66,29.95,29.85,25,7,37,0.00
2014-5-1,63.4,53.9,47.0,56.8,50.7,41.3,100,90,58,29.92,29.87,16,2,37,0.00
2014-5-2,64.7,49.8,44.4,44.7,40.4,37.5,84,71,46,29.93,29.85,16,2,20,0.00
2014-5-3,65.4,51.8,44.5,44.8,42.9,41.2,93,74,47,30.02,29.89,22,4,29,0.00
2014-5-4,72.9,60.5,52.8,48.2,44.9,42.3,69,58,40,30.09,30.01,27,7,32,0.00
2014-5-5,80.2,66.4,60.8,50.0,48.0,44.1,66,53,30,30.07,29.96,20,6,32,0.00
2014-5-6,80.0,66.0,59.8,52.2,49.6,45.8,74,57,32,30.07,29.96,15,3,28,0.00
2014-5-7,78.7,66.9,60.5,59.3,51.4,43.1,77,59,30,30.20,30.07,11,1,26,0.00
2014-5-8,79.3,68.4,58.3,57.2,50.2,45.2,73,54,32,30.29,30.17,17,3,23,0.00
2014-5-9,67.9,63.7,58.6,61.8,56.5,53.1,100,78,63,30.23,30.11,23,4,31,0.00
2014-5-10,65.7,60.1,57.8,62.1,59.5,57.8,100,98,85,30.17,30.07,16,3,31,0.00
2014-5-11,72.1,62.3,56.3,65.5,59.6,56.3,100,92,66,30.24,30.13,11,1,16,0.00
2014-5-12,79.5,65.7,59.6,69.6,63.1,58.6,100,92,50,30.29,30.20,13,1,16,0.00
2014-5-13,78.9,66.6,62.8,69.2,64.5,59.4,100,94,56,30.26,30.18,12,1,16,0.00
2014-5-14,76.3,65.4,60.9,65.0,61.4,52.7,100,89,46,30.24,30.03,12,2,17,0.00
2014-5-15,66.8,57.4,45.3,66.8,57.4,45.3,100,100,100,30.23,29.92,15,3,23,0.00
2014-5-16,53.2,45.4,42.1,50.3,43.9,38.5,100,95,72,30.05,29.92,20,2,29,0.00
2014-5-17,53.8,45.5,40.6,49.8,42.6,37.8,100,90,72,30.17,30.03,14,1,29,0.00
2014-5-18,62.7,48.9,44.2,57.1,47.5,44.2,100,95,69,30.20,30.13,11,0,16,0.00
2014-5-19,64.4,53.1,46.7,53.0,48.1,44.4,100,84,56,30.26,30.18,11,1,14,0.00
2014-5-20,74.1,59.2,51.2,62.0,55.3,51.1,100,89,56,30.28,30.16,12,1,16,0.00
2014-5-21,74.4,63.5,57.1,62.5,58.8,56.1,100,86,55,30.20,30.11,23,3,28,0.00
2014-5-22,74.9,64.8,59.9,68.3,62.1,57.4,100,92,66,30.22,30.06,20,2,28,0.00
2014-5-23,73.1,64.4,57.7,68.7,63.5,57.6,100,97,82,30.19,30.11,16,3,28,0.01
2014-5-24,71.3,61.2,54.4,60.5,52.5,42.1,100,77,37,30.20,30.12,8,0,23,0.00
2014-5-25,70.1,61.9,55.6,62.8,52.9,42.5,100,73,51,30.24,30.16,10,0,15,0.00
2014-5-26,74.2,64.0,58.8,68.7,62.6,58.8,100,96,73,30.28,30.20,15,0,17,0.00
2014-5-27,72.9,64.8,60.8,72.9,64.8,60.8,100,100,99,30.26,30.12,8,0,18,0.00
2014-5-28,74.8,63.7,60.2,69.4,61.8,0.0,100,95,70,30.17,24.14,9,1,18,0.00
2014-6-7,74.1,69.1,61.9,73.4,68.8,61.9,100,99,93,0.00,0.00,9,2,12,0.00
2014-6-8,75.2,68.9,63.4,72.1,66.9,63.4,100,94,71,0.00,0.00,24,2,24,0.00
2014-6-9,75.9,67.6,59.3,72.3,65.6,59.3,100,94,76,0.00,0.00,15,1,24,0.00
2014-6-10,80.5,69.3,61.5,73.6,65.6,61.4,100,90,57,0.00,0.00,24,2,35,0.00
2014-6-11,74.8,68.2,62.1,70.7,65.3,62.1,100,91,68,0.00,0.00,14,1,35,0.00
2014-6-12,71.1,65.2,60.2,71.1,65.1,60.2,100,100,92,0.00,0.00,9,0,20,0.00
2014-6-13,73.0,64.9,60.5,69.4,64.2,60.5,100,98,80,0.00,0.00,16,0,16,0.00
2014-6-14,75.0,65.9,60.0,70.7,62.6,57.0,100,90,62,0.00,0.00,9,1,16,0.00
2014-6-15,77.7,68.5,63.3,72.6,67.1,57.5,100,95,76,0.00,0.00,10,0,11,0.00
2014-6-16,74.3,69.0,65.7,74.3,69.0,65.7,100,100,96,0.00,0.00,9,0,11,0.00
2014-6-17,81.5,71.5,64.3,72.4,67.7,64.3,100,89,68,0.00,0.00,7,0,11,0.00
2014-6-18,79.4,71.8,66.7,76.1,70.6,66.7,100,96,81,0.00,0.00,9,0,14,0.00
2014-6-19,80.9,72.1,66.1,74.1,68.9,65.0,100,90,65,0.00,0.00,16,0,20,0.00
2014-6-20,81.4,71.1,65.3,74.9,69.2,65.3,100,94,71,0.00,0.00,9,0,20,0.00
2014-6-21,77.1,69.1,65.8,73.1,68.2,65.8,100,97,74,0.00,0.00,14,1,17,0.00
2014-6-22,77.5,69.9,63.7,71.3,65.7,60.6,100,88,58,0.00,0.00,11,1,17,0.00
2014-6-23,75.7,68.5,64.6,74.4,68.1,64.6,100,99,90,0.00,0.00,10,0,12,0.00
2014-6-24,73.6,67.9,63.7,73.6,67.9,63.7,100,100,100,0.00,0.00,10,1,15,0.00
2014-6-25,75.1,67.2,63.7,74.9,67.2,63.7,100,100,99,0.00,0.00,15,1,19,0.00
2014-6-26,74.8,68.1,63.3,71.9,67.3,63.3,100,97,81,0.00,0.00,8,0,19,0.00
2014-6-27,74.4,69.6,66.3,73.9,69.5,66.3,100,100,96,0.00,0.00,3,0,4,0.00
2014-6-28,71.9,67.8,65.1,71.9,67.8,65.0,100,100,100,0.00,0.00,9,1,10,0.00
2014-6-29,76.7,67.3,63.7,76.1,67.2,63.7,100,100,93,0.00,0.00,14,1,19,0.00
2014-6-30,73.8,67.2,61.8,73.8,67.2,61.8,100,100,100,0.00,0.00,8,0,19,0.00
2014-7-1,82.0,72.0,64.9,77.9,70.9,64.9,100,97,77,0.00,0.00,10,1,17,0.00
2014-7-2,79.7,72.5,66.6,77.6,71.3,66.6,100,96,84,0.00,0.00,10,1,17,0.00
2014-7-3,73.6,68.3,60.9,73.5,68.1,60.9,100,99,94,0.00,0.00,12,2,19,0.00
2014-7-4,71.8,62.4,56.8,64.9,58.9,54.7,100,90,63,0.00,0.00,12,3,19,0.00
2014-7-5,72.4,63.4,56.0,64.2,59.5,54.7,98,88,72,0.00,0.00,12,2,16,0.00
2014-7-6,76.2,66.6,58.9,63.7,61.4,57.8,100,85,59,0.00,0.00,8,1,11,0.00
2014-7-7,79.2,69.3,61.7,69.2,64.8,61.7,100,87,57,0.00,0.00,18,2,20,0.00
2014-7-8,76.2,67.9,62.8,72.3,66.4,62.8,100,95,73,0.00,0.00,14,2,27,0.00
2014-7-9,73.1,67.3,63.5,73.1,67.3,63.5,100,100,100,0.00,0.00,9,0,27,0.01
2014-7-10,72.9,67.3,62.9,72.8,67.3,62.9,100,100,95,0.00,0.00,9,1,11,0.00
2014-7-11,77.8,69.4,64.0,72.8,68.3,64.0,100,96,77,0.00,0.00,10,1,12,0.00
2014-7-12,74.5,69.2,64.5,74.5,69.2,64.5,100,100,93,0.00,0.00,11,1,13,0.00
2014-7-13,78.2,70.6,65.5,76.4,70.4,65.5,100,99,90,0.00,0.00,8,0,13,0.00
2014-7-14,80.1,71.1,67.0,77.2,70.6,67.0,100,99,85,0.00,0.00,9,0,20,0.00
2014-7-15,74.6,67.1,60.2,72.8,66.9,60.2,100,99,91,0.00,0.00,10,1,20,0.00
2014-7-16,68.8,60.9,56.6,64.4,59.5,56.6,100,95,76,0.00,0.00,6,0,15,0.00
2014-7-17,70.5,62.4,55.8,66.9,61.4,55.7,100,96,86,0.00,0.00,8,1,11,0.00
2014-7-18,64.7,61.9,60.3,64.7,61.9,60.3,100,100,100,0.00,0.00,9,1,14,0.00
2014-7-19,64.3,61.3,59.2,64.3,61.3,59.2,100,100,100,0.00,0.00,14,2,17,0.00
2014-7-20,71.8,64.5,59.5,71.8,64.5,59.5,100,100,100,0.00,0.00,8,1,10,0.00
2014-7-21,74.0,67.1,63.6,73.8,67.1,63.6,100,100,100,0.00,0.00,7,0,10,0.00
2014-7-22,74.8,68.4,64.3,74.2,68.4,64.3,100,100,96,0.00,0.00,10,1,10,0.00
2014-7-23,74.5,67.3,64.4,74.5,67.3,64.4,100,100,100,0.00,0.00,9,1,12,0.00
2014-7-24,76.2,68.0,64.3,75.2,67.9,64.3,100,100,94,0.00,0.00,15,1,24,0.00
2014-7-25,76.5,67.5,62.5,73.9,67.0,62.4,100,98,75,0.00,0.00,10,1,24,0.00
2014-7-26,80.3,69.8,62.6,71.7,66.2,56.6,100,90,53,0.00,0.00,10,1,14,0.00
2014-7-27,80.5,69.9,63.2,77.8,69.4,63.2,100,98,89,0.00,0.00,13,1,26,0.00
2014-7-28,69.7,65.1,61.0,67.5,64.3,61.0,100,97,86,0.00,0.00,21,3,30,0.00
2014-7-29,68.7,61.5,55.4,63.5,59.7,54.4,100,94,79,0.00,0.00,15,1,30,0.00
2014-7-30,67.1,59.4,52.5,64.5,58.3,52.5,100,96,86,0.00,0.00,9,1,16,0.00
2014-7-31,65.0,61.8,59.2,65.0,61.4,56.7,100,99,91,0.00,0.00,7,0,11,0.00
2014-8-1,69.5,64.0,60.5,69.3,64.0,60.4,100,100,99,0.00,0.00,10,1,13,0.00
2014-8-2,71.3,64.5,59.8,71.3,64.5,59.8,100,100,100,0.00,0.00,7,0,13,0.00
2014-8-3,72.1,65.7,61.0,68.7,64.5,61.0,100,96,82,0.00,0.00,9,1,12,0.00
2014-8-4,71.5,66.0,61.9,70.7,65.6,61.9,100,99,89,0.00,0.00,8,0,13,0.00
2014-8-5,75.2,67.5,62.0,71.9,66.1,62.0,100,96,84,0.00,0.00,9,0,13,0.00
2014-8-6,77.0,68.0,62.3,70.5,66.3,62.3,100,95,73,0.00,0.00,13,1,19,0.00
2014-8-7,76.1,69.3,64.7,72.1,67.3,63.3,100,94,74,0.00,0.00,14,0,19,0.00
2014-8-8,72.9,67.3,64.3,72.9,67.3,64.3,100,100,96,0.00,0.00,9,0,16,0.00
2014-8-9,75.2,67.6,64.0,75.2,67.6,64.0,100,100,100,0.00,0.00,10,1,13,0.00
2014-8-10,71.0,66.7,64.1,71.0,66.7,64.1,100,100,100,0.00,0.00,9,1,12,0.00
2014-8-11,75.0,67.4,63.6,75.0,67.4,63.6,100,100,100,0.00,0.00,10,1,12,0.00
2014-8-12,74.1,67.8,63.1,74.1,67.7,63.1,100,100,95,0.00,0.00,13,1,17,0.00
2014-8-13,65.8,60.6,58.2,64.0,60.0,0.0,100,99,93,0.00,0.00,14,2,21,0.00
2014-8-14,71.8,65.7,62.0,69.3,64.5,61.7,99,96,87,0.00,0.00,7,1,10,0.00
2014-8-18,74.4,74.0,72.0,73.2,72.9,71.6,99,96,95,0.00,0.00,14,1,17,0.00
2014-8-19,65.2,65.2,65.2,65.2,65.2,65.2,100,100,100,0.00,40.00,0,0,0,0.00
2014-8-20,78.3,69.9,68.1,70.3,68.7,68.1,100,97,76,0.00,0.00,3,0,3,0.00
2014-8-21,76.6,74.3,70.6,73.2,72.0,70.3,100,93,89,0.00,0.00,6,0,6,0.00
2014-8-22,76.0,73.7,68.8,72.3,71.3,68.8,100,92,88,0.00,0.00,9,3,13,0.00
2014-9-5,72.8,70.2,66.0,72.8,70.2,66.0,100,100,100,0.00,0.00,8,2,10,0.00
2014-9-6,74.8,68.5,64.9,74.7,68.5,64.9,100,100,100,0.00,0.00,14,0,19,0.00
2014-9-7,73.4,67.5,63.5,73.4,67.5,63.5,100,100,99,0.00,0.00,10,1,19,0.00
2014-9-8,71.0,66.0,63.0,71.0,66.0,63.0,100,100,100,0.00,0.00,7,0,14,0.00
2014-9-9,71.8,66.0,61.6,71.8,66.0,61.6,100,100,100,0.00,0.00,6,0,12,0.00
2014-9-10,73.6,66.1,61.7,71.2,65.7,61.7,100,99,88,0.00,0.00,14,1,15,0.00
2014-9-11,74.4,67.6,63.4,74.4,67.6,63.4,100,100,100,0.00,0.00,14,1,20,0.00
2014-9-12,74.0,68.2,64.2,74.0,68.2,64.2,100,100,100,0.00,0.00,8,0,20,0.00
2014-9-13,68.0,64.7,58.9,68.0,64.7,58.9,100,100,100,0.00,0.00,7,0,12,0.00
2014-9-14,66.3,62.7,59.9,66.3,62.7,59.9,100,100,100,0.00,0.00,7,1,12,0.00
2014-9-15,68.9,64.1,59.9,68.9,64.1,59.8,100,100,100,0.00,0.00,6,0,12,0.00
2014-9-16,71.0,64.2,61.1,70.8,64.2,61.1,100,100,95,0.00,0.00,13,1,18,0.00
2014-9-17,69.1,61.9,58.5,67.0,61.7,58.5,100,99,82,0.00,0.00,10,0,18,0.00
2014-9-18,66.5,60.8,56.5,63.7,60.0,56.5,100,97,82,0.00,0.00,8,0,16,0.00
2014-9-19,67.3,61.4,58.2,66.0,61.2,58.2,100,99,94,0.00,0.00,10,1,12,0.00
2014-9-20,68.5,62.1,58.3,64.5,60.6,58.3,100,95,79,0.00,0.00,10,0,12,0.00
2014-9-21,70.5,63.7,58.5,68.3,63.3,58.4,100,99,91,0.00,0.00,15,2,24,0.00
2014-9-22,62.7,56.9,52.1,61.9,54.1,51.7,100,91,71,0.00,0.00,10,1,24,0.00
2014-9-23,62.7,55.1,49.8,59.8,54.4,49.8,100,98,89,0.00,0.00,11,1,15,0.00
2014-9-24,65.2,56.3,48.6,56.7,51.7,48.6,100,86,57,0.00,0.00,10,1,15,0.00
2014-9-25,67.9,60.8,56.0,67.1,60.7,56.0,100,100,95,0.00,0.00,13,1,15,0.00
2014-9-26,68.1,62.1,58.0,66.1,61.8,58.0,100,99,92,0.00,0.00,12,1,15,0.00
2014-9-27,65.7,60.1,55.8,62.9,59.4,55.8,100,98,87,0.00,0.00,11,2,13,0.00
2014-9-28,66.1,59.6,54.7,65.3,59.6,54.7,100,100,96,0.00,0.00,9,0,13,0.00
2014-9-29,62.6,60.2,58.5,62.6,60.2,58.4,100,100,100,0.00,0.00,8,1,12,0.00
2014-9-30,68.7,61.4,56.5,64.9,59.7,56.5,100,94,74,0.00,0.00,9,0,12,0.00
2014-10-1,70.1,62.1,56.7,63.1,58.3,53.9,100,88,70,0.00,0.00,9,0,10,0.00
2014-10-2,70.8,62.9,57.4,63.5,60.2,54.5,100,91,71,0.00,0.00,11,1,16,0.00
2014-10-3,66.9,61.8,55.0,66.9,61.8,55.0,100,100,100,0.00,0.00,15,2,26,0.00
2014-10-4,54.8,44.8,39.4,54.8,41.8,36.5,100,90,70,0.00,0.00,21,4,34,0.00
2014-10-5,55.2,44.1,36.4,42.8,36.2,28.3,95,75,43,0.00,0.00,15,2,34,0.00
2014-10-6,56.5,50.4,46.8,56.5,48.8,41.6,100,94,81,0.00,0.00,36,4,36,0.00
2014-10-7,58.1,53.5,48.0,58.1,53.5,48.0,100,100,100,0.00,0.00,22,3,36,0.00
2014-10-8,65.1,59.4,56.1,62.5,57.2,53.8,100,93,69,0.00,0.00,15,2,24,0.00
2014-10-9,67.8,59.1,54.3,63.0,54.6,47.7,100,86,69,0.00,0.00,10,0,23,0.00
2014-10-10,68.3,61.6,57.0,66.0,61.2,57.0,100,99,88,0.00,0.00,16,3,25,0.00
2014-10-11,66.2,61.6,58.4,66.2,61.6,58.4,100,100,99,0.00,0.00,14,1,25,0.00
2014-10-12,65.7,60.6,56.6,65.7,60.6,56.6,100,100,100,0.00,0.00,10,1,20,0.00
2014-10-13,66.2,60.9,56.8,64.0,60.1,56.8,100,97,84,0.00,0.00,18,3,33,0.00
2014-10-14,63.6,60.0,51.7,63.6,60.0,51.7,100,100,100,0.00,0.00,24,5,33,0.00
2014-10-15,53.4,49.1,46.8,51.8,48.7,46.8,100,99,89,0.00,0.00,15,1,19,0.00
2014-10-16,49.3,47.0,45.1,49.3,47.0,45.1,100,100,100,0.00,0.00,15,1,24,0.00
2014-10-17,64.2,53.1,44.6,55.8,50.2,44.6,100,91,71,0.00,0.00,20,1,30,0.00
2014-10-18,57.1,50.2,41.8,56.8,49.7,41.8,100,98,89,0.00,0.00,19,3,30,0.00
2014-10-19,55.0,46.0,40.1,48.6,44.1,40.1,100,93,78,0.00,0.00,13,1,30,0.00
2014-10-20,58.7,49.6,45.0,52.7,46.6,42.7,100,90,62,0.00,0.00,6,0,17,0.00
2014-10-21,52.7,47.9,39.8,50.4,46.8,39.2,100,96,84,0.00,0.00,15,2,27,0.00
2014-10-22,45.9,40.9,37.9,43.3,40.4,37.9,100,98,89,0.00,0.00,15,2,27,0.00
2014-10-23,51.7,42.7,36.9,45.1,40.9,36.8,100,94,70,0.00,0.00,11,2,21,0.00
2014-10-24,57.2,49.2,43.1,43.9,38.1,29.3,98,67,43,0.00,0.00,11,1,15,0.00
2014-10-25,61.2,51.6,45.0,54.5,42.9,28.5,100,74,43,0.00,0.00,15,1,20,0.00
2014-10-26,64.1,56.3,52.1,54.8,50.7,45.6,100,83,53,0.00,0.00,20,3,24,0.00
2014-10-27,71.8,60.8,53.0,51.3,47.2,41.5,75,62,34,0.00,0.00,11,1,17,0.00
2014-10-28,68.0,60.6,56.4,58.8,53.0,47.3,100,78,48,0.00,0.00,20,3,30,0.00
2014-10-29,56.5,50.9,44.0,56.4,49.8,39.2,100,96,77,0.00,0.00,13,1,30,0.00
2014-10-30,51.7,44.9,41.1,42.8,40.6,37.9,95,86,62,0.00,0.00,9,1,17,0.00
2014-10-31,48.7,41.1,28.9,44.9,40.1,28.8,100,96,83,0.00,0.00,12,1,18,0.00
2014-11-1,30.2,27.7,25.9,30.1,27.7,25.8,100,100,100,0.00,0.00,21,5,33,0.00
2014-11-2,37.8,28.8,22.0,33.2,26.4,21.9,100,91,70,0.00,0.00,19,2,33,0.00
2014-11-3,54.9,43.4,31.5,28.1,21.7,11.5,70,43,30,0.00,0.00,7,1,26,0.00
2014-11-4,63.1,52.6,46.4,33.5,28.1,25.5,46,39,29,0.00,0.00,14,2,15,0.00
2014-11-5,56.0,51.1,47.8,52.3,37.2,24.4,97,62,37,0.00,0.00,24,4,33,0.00
2014-11-6,55.7,47.8,37.1,51.7,44.5,33.8,100,89,57,0.00,0.00,33,7,40,0.00
2014-11-7,42.3,36.0,32.3,40.6,35.5,32.3,100,98,87,0.00,0.00,19,3,26,0.00
2014-11-8,52.2,42.1,34.9,41.3,37.8,34.8,100,86,55,0.00,0.00,16,4,18,0.00
2014-11-9,51.9,44.0,37.3,42.9,39.4,35.8,98,84,70,0.00,0.00,14,1,15,0.00
2014-11-10,59.7,48.6,42.7,44.1,39.2,31.4,91,71,36,0.00,0.00,11,3,14,0.00
2014-11-11,64.1,51.9,44.8,47.5,32.8,20.2,85,50,25,0.00,0.00,11,1,13,0.00
2014-11-12,53.4,47.6,39.5,52.7,47.4,39.5,100,99,85,0.00,0.00,13,2,16,0.00
2014-11-13,40.2,33.7,24.2,40.1,33.7,24.2,100,100,100,0.00,0.00,12,1,17,0.00
2014-11-14,24.7,21.4,17.6,24.4,21.0,17.4,100,98,93,0.00,0.00,10,0,11,0.00
2014-11-15,37.2,27.6,16.2,27.5,21.1,15.4,100,77,58,0.00,0.00,13,1,18,0.00
2014-11-16,47.2,39.7,31.6,46.6,35.4,20.0,100,85,62,0.00,0.00,22,2,28,0.00
2014-11-17,48.9,37.0,17.7,48.7,37.0,17.7,100,100,100,0.00,0.00,25,8,30,0.00
2014-11-18,20.7,15.8,12.9,18.6,13.7,9.8,100,91,78,0.00,0.00,25,6,31,0.00
2014-11-19,35.4,24.6,14.5,23.8,17.0,9.7,85,73,57,0.00,0.00,23,4,30,0.00
2014-11-20,41.1,34.6,28.4,32.6,27.0,20.8,95,75,52,0.00,0.00,28,7,32,0.00
2014-11-21,43.4,35.0,27.3,26.6,22.1,17.7,84,60,36,0.00,0.00,30,3,30,0.00
2014-11-22,50.6,41.5,33.3,44.9,31.7,25.9,100,70,43,0.00,0.00,18,5,29,0.00
2014-11-23,51.6,47.2,43.3,51.6,47.2,43.3,100,100,100,0.00,0.00,41,7,51,0.00
2014-11-24,58.9,52.3,46.0,51.1,47.2,43.2,100,84,56,0.00,0.00,34,10,48,0.00
2014-11-25,48.0,41.6,37.3,45.5,33.8,28.1,92,75,49,0.00,0.00,12,1,12,0.00
2014-11-26,42.4,37.5,34.2,38.2,33.8,26.9,100,87,64,0.00,0.00,22,2,25,0.00
2014-11-27,34.3,26.7,20.3,31.7,26.6,20.3,100,100,78,0.00,0.00,23,5,30,0.00
2014-11-28,37.2,27.1,19.0,26.2,22.6,19.0,100,85,56,0.00,0.00,13,1,16,0.00
2014-11-29,47.4,40.5,31.8,43.9,35.8,25.5,98,84,62,0.00,0.00,25,8,30,0.00
2014-11-30,54.9,47.9,43.9,49.4,45.4,41.8,100,91,77,0.00,0.00,25,6,29,0.00
2014-12-1,56.9,50.5,45.6,54.8,50.0,45.6,100,98,91,0.00,0.00,18,0,18,0.00
2014-12-2,55.1,51.5,48.7,54.4,51.3,48.6,100,99,95,0.00,0.00,15,1,19,0.00
2014-12-3,54.0,50.0,46.3,53.2,49.8,46.3,100,99,93,0.00,0.00,34,5,35,0.00
2014-12-4,55.1,48.9,45.4,54.1,48.8,45.4,100,99,95,0.00,0.00,12,1,18,0.00
2014-12-5,54.0,49.8,47.1,54.0,49.8,46.9,100,100,97,0.00,0.00,20,2,20,0.00
2014-12-6,52.1,46.6,36.7,52.1,46.6,36.7,100,100,100,0.00,0.00,25,6,30,0.00
2014-12-7,43.3,36.3,29.1,43.1,32.5,20.1,100,88,48,0.00,0.00,18,3,23,0.00
2014-12-8,38.9,35.3,31.2,37.6,30.1,17.9,100,83,48,0.00,0.00,11,1,19,0.00
2014-12-9,35.6,32.2,28.3,35.6,32.2,28.3,100,100,100,0.00,0.00,17,2,20,0.00
2014-12-10,31.2,27.4,24.0,31.2,27.4,24.0,100,100,100,0.00,0.00,19,4,27,0.00
2014-12-11,33.6,26.7,22.2,28.1,23.6,13.2,100,89,54,0.00,0.00,16,0,22,0.00
2014-12-12,42.1,34.9,27.4,21.3,12.9,2.9,54,41,27,0.00,40.00,13,3,15,0.00
2014-12-13,48.0,40.5,34.4,25.0,19.6,14.4,52,43,37,0.00,0.00,12,1,13,0.00
2014-12-14,50.1,43.4,39.5,36.0,23.7,18.1,80,46,32,0.00,0.00,12,1,14,0.00
2014-12-15,57.8,47.7,43.4,40.6,26.7,19.7,83,45,26,0.00,0.00,14,3,15,0.00
2014-12-16,49.3,43.5,37.1,48.0,43.0,37.1,100,98,83,0.00,0.00,26,5,37,0.00
2014-12-17,42.7,37.5,34.0,39.1,33.1,20.2,100,86,56,0.00,0.00,18,2,21,0.00
2014-12-18,45.7,37.2,31.9,36.1,27.1,16.5,96,68,42,0.00,0.00,13,1,13,0.00
2014-12-19,42.7,35.8,32.4,37.8,33.6,30.9,97,92,80,0.00,0.00,9,1,10,0.00
2014-12-20,42.0,37.4,35.0,42.0,37.3,33.8,100,99,93,0.00,0.00,8,0,13,0.00
2014-12-21,44.6,37.4,33.2,44.0,37.4,33.2,100,100,97,0.00,0.00,10,0,12,0.00
2014-12-22,45.4,40.4,36.4,45.4,40.4,36.3,100,100,100,0.00,0.00,13,1,16,0.00
2014-12-23,53.1,49.0,42.4,53.0,49.0,42.4,100,100,100,0.00,0.00,25,3,29,0.00
2014-12-24,56.3,49.7,37.6,56.3,49.7,37.6,100,100,100,0.00,0.00,30,4,33,0.00
2014-12-25,40.8,35.7,31.0,37.5,33.9,26.8,100,93,67,0.00,0.00,32,4,43,0.00
2014-12-26,49.8,42.4,35.5,32.5,24.6,16.0,88,50,36,0.00,0.00,10,1,11,0.00
2014-12-27,55.4,48.9,42.5,29.4,23.3,16.7,55,37,24,0.00,0.00,18,4,20,0.00
2014-12-28,54.7,50.1,46.9,54.6,48.5,29.6,100,95,44,0.00,0.00,25,3,26,0.00
2014-12-29,49.6,45.1,40.1,49.5,45.1,40.1,100,100,100,0.00,0.00,9,0,10,0.00
2014-12-30,40.5,35.5,29.0,40.5,35.5,29.0,100,100,100,0.00,0.00,11,0,13,0.00
2014-12-31,35.3,28.9,25.1,34.2,28.1,22.9,100,97,85,0.00,0.00,12,0,13,0.00
2015-1-1,43.4,33.5,25.3,37.8,31.1,22.8,100,91,80,0.00,0.00,10,0,13,0.00
2015-1-2,47.5,42.2,36.0,47.5,42.2,36.0,100,100,100,0.00,0.00,8,0,11,0.00